CWYO2: Chewey Road

                                SHEF ID:       CWYO2     Illinois River at Chewey, OK
STATION TYPE:
Regulating: Stage = 12.00, Flow = 13730

PRECIP STAGE STAGE(2) RIV-FLOW BAT-LOAD
in ft ft cfs volt
Ccp-Rev Ccp-Rev Ccp-Rev Ccp-Rev Ccp-Rev
(America/Chicago)
04/29 00:00 0.00 5.39 5.36 2162 12.40
04/29 01:00 0.00 5.39 5.37 2162 12.40
04/29 02:00 0.00 5.41 5.38 2181 12.40
04/29 03:00 0.00 5.47 5.44 2239 12.38
04/29 04:00 0.00 5.59 5.55 2358 12.38
04/29 05:00 0.00 5.77 5.72 2542 12.39
04/29 06:00 0.00 5.96 5.91 2745 12.37
04/29 07:00 0.00 6.07 6.03 2867 12.37
04/29 08:00 0.00 6.12 6.08 2923 12.40
04/29 09:00 0.00 6.13 6.10 2934 12.46
04/29 10:00 0.00 6.22 6.16 3037 12.63
04/29 11:00 0.00 6.43 6.39 3285 12.78
04/29 12:00 0.00 6.75 6.69 3685 12.75
04/29 13:00 0.00 7.02 6.94 4042 12.79
04/29 14:00 0.00 7.17 7.07 4249 12.73
04/29 15:00 0.00 7.21 7.12 4305 12.73
04/29 16:00 0.00 7.17 7.08 4249 12.72
04/29 17:00 0.00 7.09 7.01 4138 12.71
04/29 18:00 0.00 6.95 6.88 3948 12.68
04/29 19:00 0.00 6.81 6.74 3763 12.63
04/29 20:00 0.00 6.67 6.61 3583 12.57
04/29 21:00 0.00 6.54 6.48 3420 12.54
04/29 22:00 0.00 6.41 6.36 3261 12.53
04/29 23:00 0.00 6.31 6.25 3142 12.51
Data processed at Thu 30Apr2026 04:29 GMT

NOTICE: If you are parsing this page

Please convert to using our Data API. Starting early 2026 we will be migrating to: https://water.usace.army.mil with modern pages rendered in JavaScript. When this migration completes you will no longer be able to scrape this page! CWMSDataAPI (CDA)

Timeseries IDs (TSIDs)

TSIDs used from left to right in the data table
CHEW.Precip-Inc.Total.1Hour.1Hour.Ccp-Rev
CHEW.Stage.Inst.1Hour.0.Ccp-Rev
CHEW.Stage-Alt.Inst.1Hour.0.Ccp-Rev
CHEW.Flow.Inst.1Hour.0.Ccp-Rev
CHEW.Volt-Battery Load.Inst.1Hour.0.Ccp-Rev

                            

All information presented herein is the property of the government of the United States of America and may be revised or deleted at any time without prior notice. Dissemination of this information without the expressed written consent of the Public Affairs Office, Tulsa District U.S. Army Corps of Engineers is strictly prohibited. These data are gathered electronically and, as presented, have NOT undergone any form of quality control. These data are NOT guaranteed to be valid or correct.